createdAt,value
2019-05-11T00:00:05.926Z,70.72
2019-05-11T00:02:36.372Z,70.55
2019-05-11T00:05:06.603Z,70.00
2019-05-11T00:07:36.768Z,69.76
2019-05-11T00:10:06.876Z,69.48
2019-05-11T00:12:36.991Z,69.04
2019-05-11T00:15:07.277Z,69.08
2019-05-11T00:17:37.497Z,69.81
2019-05-11T00:20:08.069Z,69.50
2019-05-11T00:22:38.254Z,69.19
2019-05-11T00:25:08.844Z,69.88
2019-05-11T00:27:39.828Z,69.71
2019-05-11T00:30:10.394Z,70.30
2019-05-11T00:32:40.559Z,70.05
2019-05-11T00:35:10.763Z,70.45
2019-05-11T00:37:40.882Z,69.81
2019-05-11T00:40:14.822Z,69.69
2019-05-11T00:42:43.242Z,69.56
2019-05-11T00:45:13.495Z,69.54
2019-05-11T00:47:43.599Z,69.55
2019-05-11T00:50:13.869Z,69.41
2019-05-11T00:52:43.975Z,70.13
2019-05-11T00:55:14.101Z,69.85
2019-05-11T00:57:44.220Z,69.87
2019-05-11T01:00:15.532Z,70.36
2019-05-11T01:02:45.648Z,70.59
2019-05-11T01:05:15.820Z,70.39
2019-05-11T01:07:45.962Z,71.36
2019-05-11T01:10:25.577Z,70.63
2019-05-11T01:12:47.953Z,70.66
2019-05-11T01:15:18.213Z,71.10
2019-05-11T01:17:48.415Z,71.64
2019-05-11T01:20:18.862Z,71.73
2019-05-11T01:22:48.931Z,71.61
2019-05-11T01:25:19.307Z,71.26
2019-05-11T01:27:49.689Z,72.04
2019-05-11T01:30:19.902Z,71.49
2019-05-11T01:32:50.043Z,71.57
2019-05-11T01:35:21.165Z,72.65
2019-05-11T01:37:51.317Z,73.10
2019-05-11T01:40:21.572Z,73.37
2019-05-11T01:42:51.667Z,72.24
2019-05-11T01:45:21.822Z,71.81
2019-05-11T01:47:52.101Z,72.26
2019-05-11T01:50:22.276Z,72.29
2019-05-11T01:52:52.425Z,71.66
2019-05-11T01:55:22.638Z,71.74
2019-05-11T01:57:52.831Z,71.30
2019-05-11T02:00:22.930Z,71.99
2019-05-11T02:02:53.231Z,72.01
2019-05-11T02:05:33.530Z,71.97
2019-05-11T02:08:03.617Z,71.86
2019-05-11T02:10:35.168Z,72.02
2019-05-11T02:13:05.373Z,73.04
2019-05-11T02:15:35.511Z,72.77
2019-05-11T02:18:06.091Z,72.53
2019-05-11T02:20:36.257Z,73.06
2019-05-11T02:23:06.372Z,72.85
2019-05-11T02:25:36.591Z,72.34
2019-05-11T02:28:06.704Z,73.99
2019-05-11T02:30:37.022Z,72.92
2019-05-11T02:33:07.258Z,73.34
2019-05-11T02:35:37.412Z,72.63
2019-05-11T02:38:07.799Z,73.02
2019-05-11T02:40:38.003Z,73.67
2019-05-11T02:43:11.202Z,73.37
2019-05-11T02:45:43.006Z,73.50
2019-05-11T02:48:13.119Z,73.83
2019-05-11T02:50:44.670Z,73.47
2019-05-11T02:53:16.198Z,73.71
2019-05-11T02:55:49.152Z,73.58
2019-05-11T02:58:19.291Z,74.10
2019-05-11T03:00:49.436Z,74.27
2019-05-11T03:03:19.559Z,74.21
2019-05-11T03:05:49.791Z,74.66
2019-05-11T03:08:20.959Z,74.52
2019-05-11T03:10:51.419Z,74.39
2019-05-11T03:13:21.619Z,73.68
2019-05-11T03:15:51.808Z,74.23
2019-05-11T03:18:21.958Z,73.18
2019-05-11T03:20:52.153Z,73.45
2019-05-11T03:23:22.313Z,72.73
2019-05-11T03:25:52.677Z,73.39
2019-05-11T03:28:22.803Z,73.07
2019-05-11T03:30:52.923Z,72.60
2019-05-11T03:33:23.011Z,72.48
2019-05-11T03:35:53.133Z,72.78
2019-05-11T03:38:23.312Z,72.34
2019-05-11T03:40:53.394Z,72.43
2019-05-11T03:43:23.538Z,72.29
2019-05-11T03:45:53.667Z,72.03
2019-05-11T03:48:23.793Z,72.45
2019-05-11T03:50:54.942Z,72.58
2019-05-11T03:53:25.111Z,73.00
2019-05-11T03:55:55.215Z,72.99
2019-05-11T03:58:26.534Z,73.20
2019-05-11T04:00:57.071Z,72.89
2019-05-11T04:03:27.183Z,72.81
2019-05-11T04:05:57.266Z,73.20
2019-05-11T04:08:27.412Z,72.88
2019-05-11T04:10:57.513Z,73.21
2019-05-11T04:13:27.610Z,72.89
2019-05-11T04:15:58.772Z,72.93
2019-05-11T04:18:29.060Z,73.56
2019-05-11T04:20:59.150Z,73.32
2019-05-11T04:23:29.328Z,72.70
2019-05-11T04:25:59.435Z,72.55
2019-05-11T04:28:29.638Z,72.79
2019-05-11T04:30:59.758Z,72.91
2019-05-11T04:33:33.125Z,72.60
2019-05-11T04:36:02.961Z,72.61
2019-05-11T04:38:33.116Z,72.23
2019-05-11T04:41:03.353Z,72.21
2019-05-11T04:43:33.540Z,72.05
2019-05-11T04:46:03.651Z,71.77
2019-05-11T04:48:33.786Z,71.35
2019-05-11T04:51:05.731Z,71.61
2019-05-11T04:53:46.032Z,70.85
2019-05-11T04:56:21.398Z,70.68
2019-05-11T04:58:51.565Z,70.91
2019-05-11T05:01:21.730Z,71.23
2019-05-11T05:03:54.138Z,70.45
2019-05-11T05:06:24.562Z,70.72
2019-05-11T05:08:58.235Z,70.47
2019-05-11T05:11:36.524Z,70.81
2019-05-11T05:14:08.292Z,70.24
2019-05-11T05:16:38.688Z,69.01
2019-05-11T05:19:09.239Z,69.87
2019-05-11T05:21:39.565Z,68.95
2019-05-11T05:24:11.594Z,68.61
2019-05-11T05:26:44.705Z,68.73
2019-05-11T05:29:16.126Z,68.65
2019-05-11T05:31:47.720Z,67.87
2019-05-11T05:34:19.559Z,67.41
2019-05-11T05:36:49.653Z,67.46
2019-05-11T05:39:19.775Z,66.96
2019-05-11T05:41:57.064Z,66.82
2019-05-11T05:44:22.303Z,66.43
2019-05-11T05:46:52.396Z,66.74
2019-05-11T05:49:22.557Z,66.66
2019-05-11T05:51:52.703Z,66.14
2019-05-11T05:54:22.896Z,66.41
2019-05-11T05:56:53.043Z,65.89
2019-05-11T05:59:25.622Z,65.11
2019-05-11T06:01:57.788Z,65.08
2019-05-11T06:04:27.919Z,64.70
2019-05-11T06:06:58.049Z,65.51
2019-05-11T06:09:28.209Z,64.40
2019-05-11T06:11:58.338Z,64.21
2019-05-11T06:14:28.657Z,63.73
2019-05-11T06:16:58.774Z,63.51
2019-05-11T06:19:28.978Z,63.71
2019-05-11T06:21:59.075Z,63.83
2019-05-11T06:24:29.209Z,63.97
2019-05-11T06:26:59.533Z,63.63
2019-05-11T06:29:31.392Z,63.59
2019-05-11T06:32:01.605Z,63.56
2019-05-11T06:34:31.768Z,63.66
2019-05-11T06:37:01.903Z,63.53
2019-05-11T06:39:32.056Z,62.78
2019-05-11T06:42:05.663Z,62.42
2019-05-11T06:44:37.448Z,61.88
2019-05-11T06:47:07.563Z,61.49
2019-05-11T06:49:37.705Z,61.35
2019-05-11T06:52:07.827Z,61.22
2019-05-11T06:54:45.025Z,61.14
2019-05-11T06:57:15.134Z,61.21
2019-05-11T06:59:50.177Z,62.74
2019-05-11T07:02:20.351Z,61.39
2019-05-11T07:04:50.531Z,61.46
2019-05-11T07:07:20.639Z,60.73
2019-05-11T07:10:00.071Z,60.50
2019-05-11T07:12:33.174Z,60.67
2019-05-11T07:15:03.289Z,61.93
2019-05-11T07:17:33.485Z,61.62
2019-05-11T07:20:03.663Z,62.06
2019-05-11T07:22:33.755Z,62.74
2019-05-11T07:25:04.099Z,63.13
2019-05-11T07:27:34.204Z,64.02
2019-05-11T07:30:07.061Z,64.46
2019-05-11T07:32:38.089Z,64.37
2019-05-11T07:35:09.220Z,64.69
2019-05-11T07:37:39.365Z,64.77
2019-05-11T07:40:11.887Z,65.18
2019-05-11T07:42:42.105Z,65.68
2019-05-11T07:45:13.109Z,65.31
2019-05-11T07:47:43.171Z,65.34
2019-05-11T07:50:13.343Z,66.18
2019-05-11T07:52:43.431Z,66.09
2019-05-11T07:55:14.280Z,66.12
2019-05-11T07:57:48.174Z,65.96
2019-05-11T08:00:27.872Z,65.82
2019-05-11T08:02:58.539Z,66.43
2019-05-11T08:05:28.910Z,67.00
2019-05-11T08:07:59.651Z,66.83
2019-05-11T08:10:32.770Z,67.07
2019-05-11T08:13:02.882Z,67.29
2019-05-11T08:15:34.635Z,67.67
2019-05-11T08:18:04.813Z,67.64
2019-05-11T08:20:35.040Z,67.70
2019-05-11T08:23:05.202Z,67.48
2019-05-11T08:25:40.257Z,67.99
2019-05-11T08:28:11.983Z,67.89
2019-05-11T08:30:41.121Z,67.46
2019-05-11T08:33:11.267Z,67.70
2019-05-11T08:35:41.409Z,68.10
2019-05-11T08:38:11.565Z,67.96
2019-05-11T08:40:41.755Z,67.89
2019-05-11T08:43:11.934Z,68.26
2019-05-11T08:45:42.107Z,68.20
2019-05-11T08:48:12.355Z,67.97
2019-05-11T08:50:42.575Z,68.44
2019-05-11T08:53:14.068Z,69.19
2019-05-11T08:55:45.539Z,69.06
2019-05-11T08:58:19.130Z,68.56
2019-05-11T09:00:47.859Z,68.49
2019-05-11T09:03:18.085Z,68.75
2019-05-11T09:05:49.811Z,69.53
2019-05-11T09:08:20.058Z,70.22
2019-05-11T09:10:50.191Z,70.80
2019-05-11T09:13:20.355Z,70.85
2019-05-11T09:15:50.578Z,70.88
2019-05-11T09:18:22.817Z,71.56
2019-05-11T09:20:52.931Z,71.68
2019-05-11T09:23:34.581Z,72.42
2019-05-11T09:25:59.988Z,72.22
2019-05-11T09:28:31.340Z,71.16
2019-05-11T09:31:01.609Z,71.04
2019-05-11T09:33:31.769Z,71.12
2019-05-11T09:36:02.107Z,70.64
2019-05-11T09:38:33.507Z,70.84
2019-05-11T09:41:03.673Z,71.18
2019-05-11T09:43:37.540Z,70.65
2019-05-11T09:46:15.301Z,70.67
2019-05-11T09:48:45.536Z,69.92
2019-05-11T09:51:18.176Z,69.45
2019-05-11T09:53:48.424Z,69.30
2019-05-11T09:56:20.872Z,69.75
2019-05-11T09:58:51.160Z,69.21
2019-05-11T10:01:23.374Z,69.12
2019-05-11T10:03:53.548Z,69.05
2019-05-11T10:06:23.753Z,68.80
2019-05-11T10:08:57.910Z,69.03
2019-05-11T10:11:28.380Z,69.52
2019-05-11T10:13:58.532Z,70.16
2019-05-11T10:16:28.666Z,69.42
2019-05-11T10:19:08.481Z,70.21
2019-05-11T10:21:38.830Z,69.72
2019-05-11T10:24:09.269Z,69.35
2019-05-11T10:26:40.435Z,69.49
2019-05-11T10:29:10.611Z,69.12
2019-05-11T10:31:40.822Z,68.60
2019-05-11T10:34:10.990Z,68.22
2019-05-11T10:36:41.234Z,67.87
2019-05-11T10:39:14.484Z,68.13
2019-05-11T10:41:44.831Z,68.00
2019-05-11T10:44:18.816Z,68.02
2019-05-11T10:46:48.555Z,67.27
2019-05-11T10:49:21.716Z,66.83
2019-05-11T10:51:54.816Z,66.56
2019-05-11T10:54:28.610Z,67.36
2019-05-11T10:56:57.917Z,67.74
2019-05-11T10:59:31.317Z,68.64
2019-05-11T11:02:01.701Z,67.69
2019-05-11T11:04:31.921Z,67.32
2019-05-11T11:07:02.069Z,66.75
2019-05-11T11:09:35.142Z,67.15
2019-05-11T11:12:08.299Z,65.98
2019-05-11T11:14:38.468Z,66.28
2019-05-11T11:17:08.876Z,66.82
2019-05-11T11:19:39.043Z,67.12
2019-05-11T11:22:35.002Z,67.04
2019-05-11T11:24:48.171Z,66.32
2019-05-11T11:27:21.749Z,66.42
2019-05-11T11:29:52.925Z,66.49
2019-05-11T11:32:23.024Z,67.48
2019-05-11T11:34:53.224Z,67.31
2019-05-11T11:37:24.722Z,67.49
2019-05-11T11:39:54.866Z,68.36
2019-05-11T11:42:25.289Z,68.83
2019-05-11T11:44:58.887Z,69.66
2019-05-11T11:47:29.051Z,70.64
2019-05-11T11:49:59.250Z,71.28
2019-05-11T11:52:29.496Z,73.07
2019-05-11T11:54:59.628Z,73.86
2019-05-11T11:57:30.890Z,73.93
2019-05-11T12:00:03.906Z,74.70
2019-05-11T12:02:34.174Z,75.61
2019-05-11T12:05:04.354Z,73.67
2019-05-11T12:07:34.833Z,74.09
2019-05-11T12:10:07.648Z,73.00
2019-05-11T12:12:38.652Z,71.45
2019-05-11T12:15:10.575Z,71.67
2019-05-11T12:17:40.832Z,71.82
2019-05-11T12:20:11.247Z,72.15
2019-05-11T12:22:41.455Z,71.82
2019-05-11T12:25:11.563Z,72.92
2019-05-11T12:27:41.852Z,72.59
2019-05-11T12:30:12.297Z,73.41
2019-05-11T12:32:48.539Z,72.13
2019-05-11T12:35:18.766Z,73.04
2019-05-11T12:37:48.971Z,72.45
2019-05-11T12:40:29.050Z,71.81
2019-05-11T12:43:02.059Z,71.59
2019-05-11T12:45:32.216Z,69.17
2019-05-11T12:48:02.403Z,68.29
2019-05-11T12:50:32.554Z,67.65
2019-05-11T12:53:07.844Z,67.34
2019-05-11T12:55:40.253Z,67.58
2019-05-11T12:58:14.842Z,66.23
2019-05-11T13:00:44.965Z,62.94
2019-05-11T13:03:15.152Z,60.94
2019-05-11T13:05:45.342Z,59.15
2019-05-11T13:08:15.531Z,58.72
2019-05-11T13:10:47.822Z,57.42
2019-05-11T13:13:23.759Z,58.46
2019-05-11T13:15:53.855Z,56.81
2019-05-11T13:18:24.098Z,56.99
2019-05-11T13:20:54.308Z,59.65
2019-05-11T13:23:24.477Z,54.12
2019-05-11T13:25:54.604Z,53.70
2019-05-11T13:28:25.529Z,54.47
2019-05-11T13:30:57.770Z,53.41
2019-05-11T13:33:27.981Z,54.03
2019-05-11T13:35:58.221Z,53.15
2019-05-11T13:38:28.449Z,56.36
2019-05-11T13:40:59.192Z,52.94
2019-05-11T13:43:34.319Z,51.77
2019-05-11T13:46:04.396Z,52.81
2019-05-11T13:48:38.495Z,53.63
2019-05-11T13:51:08.747Z,54.01
2019-05-11T13:53:40.191Z,49.88
2019-05-11T13:56:10.389Z,49.88
2019-05-11T13:58:40.657Z,51.97
2019-05-11T14:01:13.909Z,52.41
2019-05-11T14:03:49.406Z,49.57
2019-05-11T14:06:19.429Z,49.61
2019-05-11T14:08:52.628Z,48.71
2019-05-11T14:11:22.739Z,47.48
2019-05-11T14:13:52.961Z,47.28
2019-05-11T14:16:23.160Z,47.26
2019-05-11T14:18:53.345Z,47.56
2019-05-11T14:21:23.555Z,48.51
2019-05-11T14:23:58.626Z,47.74
2019-05-11T14:26:28.133Z,48.03
2019-05-11T14:28:58.927Z,46.63
2019-05-11T14:31:31.560Z,46.62
2019-05-11T14:34:03.371Z,47.10
2019-05-11T14:36:33.537Z,47.94
2019-05-11T14:39:08.409Z,46.40
2019-05-11T14:41:38.317Z,47.18
2019-05-11T14:44:09.093Z,46.87
2019-05-11T14:46:39.344Z,48.25
2019-05-11T14:49:12.246Z,46.66
2019-05-11T14:51:44.591Z,47.00
2019-05-11T14:54:18.542Z,46.96
2019-05-11T14:56:49.062Z,48.60
2019-05-11T14:59:19.254Z,48.42
2019-05-11T15:01:49.501Z,48.75
2019-05-11T15:04:19.619Z,48.48
2019-05-11T15:06:58.772Z,47.33
2019-05-11T15:09:32.797Z,47.91
2019-05-11T15:12:02.926Z,48.84
2019-05-11T15:14:33.115Z,49.45
2019-05-11T15:17:03.219Z,49.50
2019-05-11T15:19:33.405Z,49.47
2019-05-11T15:22:03.547Z,47.82
2019-05-11T15:24:38.341Z,48.64
2019-05-11T15:27:08.154Z,48.52
2019-05-11T15:29:38.793Z,49.09
2019-05-11T15:32:10.365Z,48.91
2019-05-11T15:34:41.884Z,49.45
2019-05-11T15:37:13.655Z,50.33
2019-05-11T15:39:43.890Z,49.43
2019-05-11T15:42:19.040Z,49.73
2019-05-11T15:44:48.309Z,49.93
2019-05-11T15:47:23.762Z,50.93
2019-05-11T15:49:52.621Z,49.72
2019-05-11T15:52:43.216Z,49.23
2019-05-11T15:55:13.924Z,49.00
2019-05-11T15:57:44.042Z,47.22
2019-05-11T16:00:15.546Z,44.91
2019-05-11T16:02:48.736Z,43.45
2019-05-11T16:05:20.693Z,42.09
2019-05-11T16:07:53.431Z,41.11
2019-05-11T16:10:27.852Z,42.19
2019-05-11T16:12:58.693Z,43.54
2019-05-11T16:15:28.898Z,44.78
2019-05-11T16:17:58.998Z,45.01
2019-05-11T16:20:32.079Z,46.85
2019-05-11T16:23:02.288Z,46.82
2019-05-11T16:25:32.485Z,45.33
2019-05-11T16:28:02.685Z,42.81
2019-05-11T16:30:32.818Z,43.55
2019-05-11T16:33:03.060Z,42.53
2019-05-11T16:35:38.269Z,44.00
2019-05-11T16:38:10.709Z,44.68
2019-05-11T16:40:41.134Z,44.78
2019-05-11T16:43:11.404Z,44.81
2019-05-11T16:45:41.593Z,45.22
2019-05-11T16:48:11.720Z,46.56
2019-05-11T16:50:44.094Z,45.86
2019-05-11T16:53:15.320Z,46.25
2019-05-11T16:55:48.410Z,47.27
2019-05-11T16:58:19.877Z,47.29
2019-05-11T17:00:53.587Z,48.88
2019-05-11T17:03:27.971Z,49.18
2019-05-11T17:06:02.793Z,49.56
2019-05-11T17:08:33.482Z,50.45
2019-05-11T17:11:08.216Z,49.54
2019-05-11T17:13:38.492Z,48.89
2019-05-11T17:16:10.214Z,48.25
2019-05-11T17:18:43.376Z,47.63
2019-05-11T17:21:13.539Z,47.69
2019-05-11T17:23:44.118Z,47.27
2019-05-11T17:26:14.275Z,47.36
2019-05-11T17:28:48.997Z,46.63
2019-05-11T17:31:19.848Z,47.27
2019-05-11T17:33:52.692Z,47.20
2019-05-11T17:36:23.824Z,47.10
2019-05-11T17:38:54.544Z,47.63
2019-05-11T17:41:29.171Z,47.83
2019-05-11T17:43:59.624Z,47.78
2019-05-11T17:46:30.466Z,47.92
2019-05-11T17:49:00.664Z,48.36
2019-05-11T17:51:31.053Z,47.96
2019-05-11T17:54:01.531Z,45.75
2019-05-11T17:56:32.562Z,44.42
2019-05-11T17:59:02.975Z,43.96
2019-05-11T18:01:33.624Z,43.01
2019-05-11T18:04:03.855Z,42.01
2019-05-11T18:06:34.310Z,40.98
2019-05-11T18:09:08.394Z,41.54
2019-05-11T18:11:38.659Z,39.61
2019-05-11T18:14:08.761Z,40.07
2019-05-11T18:16:38.970Z,40.28
2019-05-11T18:19:09.238Z,40.26
2019-05-11T18:21:39.490Z,40.37
2019-05-11T18:24:11.756Z,39.79
2019-05-11T18:26:49.264Z,40.12
2019-05-11T18:29:28.770Z,40.13
2019-05-11T18:32:00.044Z,40.28
2019-05-11T18:34:30.364Z,40.45
2019-05-11T18:37:00.506Z,40.44
2019-05-11T18:39:30.691Z,40.86
2019-05-11T18:42:00.913Z,40.72
2019-05-11T18:44:33.446Z,40.92
2019-05-11T18:47:03.699Z,41.28
2019-05-11T18:49:43.363Z,41.70
2019-05-11T18:52:18.774Z,42.46
2019-05-11T18:54:47.934Z,42.96
2019-05-11T18:57:19.364Z,43.87
2019-05-11T18:59:50.656Z,44.50
2019-05-11T19:02:20.845Z,45.19
2019-05-11T19:04:53.845Z,46.71
2019-05-11T19:07:28.292Z,47.42
2019-05-11T19:09:58.613Z,49.73
2019-05-11T19:12:28.791Z,51.35
2019-05-11T19:14:59.175Z,52.21
2019-05-11T19:17:38.262Z,52.85
2019-05-11T19:20:09.144Z,53.91
2019-05-11T19:22:40.858Z,54.31
2019-05-11T19:25:12.871Z,54.98
2019-05-11T19:27:43.243Z,55.70
2019-05-11T19:30:13.769Z,56.26
2019-05-11T19:32:43.915Z,56.70
2019-05-11T19:35:13.516Z,57.11
2019-05-11T19:37:48.717Z,57.63
2019-05-11T19:40:19.093Z,57.99
2019-05-11T19:42:54.467Z,57.97
2019-05-11T19:45:25.085Z,58.26
2019-05-11T19:47:57.587Z,58.59
2019-05-11T19:50:27.206Z,58.84
2019-05-11T19:52:58.081Z,58.93
2019-05-11T19:55:31.335Z,59.12
2019-05-11T19:58:08.609Z,59.39
2019-05-11T20:00:38.742Z,59.65
2019-05-11T20:03:09.345Z,59.90
2019-05-11T20:05:39.718Z,60.31
2019-05-11T20:08:13.945Z,60.67
2019-05-11T20:10:48.496Z,60.86
2019-05-11T20:13:18.455Z,60.97
2019-05-11T20:15:54.349Z,61.44
2019-05-11T20:18:25.443Z,61.58
2019-05-11T20:20:55.624Z,61.95
2019-05-11T20:23:25.827Z,62.38
2019-05-11T20:25:58.178Z,62.40
2019-05-11T20:28:30.353Z,62.33
2019-05-11T20:31:00.665Z,62.90
2019-05-11T20:33:30.947Z,62.97
2019-05-11T20:36:01.359Z,63.37
2019-05-11T20:38:31.563Z,63.58
2019-05-11T20:41:01.743Z,63.64
2019-05-11T20:43:32.287Z,63.82
2019-05-11T20:46:02.428Z,64.08
2019-05-11T20:48:38.344Z,64.70
2019-05-11T20:51:09.979Z,64.80
2019-05-11T20:53:40.147Z,64.53
2019-05-11T20:56:10.347Z,64.95
2019-05-11T20:58:59.528Z,65.12
2019-05-11T21:01:29.406Z,65.33
2019-05-11T21:03:59.809Z,65.49
2019-05-11T21:06:30.011Z,65.87
2019-05-11T21:09:00.217Z,65.95
2019-05-11T21:11:30.523Z,66.52
2019-05-11T21:14:00.728Z,66.87
2019-05-11T21:16:30.830Z,67.29
2019-05-11T21:19:01.041Z,67.30
2019-05-11T21:21:45.199Z,67.65
2019-05-11T21:24:03.429Z,67.62
2019-05-11T21:26:33.750Z,67.57
2019-05-11T21:29:04.090Z,67.47
2019-05-11T21:31:34.264Z,67.34
2019-05-11T21:34:04.345Z,67.14
2019-05-11T21:36:34.511Z,67.12
2019-05-11T21:39:08.045Z,67.31
2019-05-11T21:41:38.703Z,67.40
2019-05-11T21:44:08.997Z,67.74
2019-05-11T21:46:40.237Z,67.67
2019-05-11T21:49:11.462Z,67.82
2019-05-11T21:51:41.604Z,68.47
2019-05-11T21:54:11.815Z,68.71
2019-05-11T21:56:43.494Z,68.90
2019-05-11T21:59:13.606Z,69.21
2019-05-11T22:01:43.814Z,69.28
2019-05-11T22:04:14.138Z,69.28
2019-05-11T22:06:44.331Z,69.51
2019-05-11T22:09:14.514Z,69.40
2019-05-11T22:11:44.650Z,69.63
2019-05-11T22:14:14.781Z,69.79
2019-05-11T22:16:45.050Z,69.90
2019-05-11T22:19:15.188Z,69.56
2019-05-11T22:21:49.410Z,69.91
2019-05-11T22:24:17.961Z,69.80
2019-05-11T22:26:49.492Z,69.52
2019-05-11T22:29:19.636Z,69.92
2019-05-11T22:31:49.750Z,69.81
2019-05-11T22:34:19.913Z,70.18
2019-05-11T22:36:50.091Z,70.60
2019-05-11T22:39:20.840Z,70.35
2019-05-11T22:41:51.129Z,70.46
2019-05-11T22:44:21.600Z,70.79
2019-05-11T22:46:51.760Z,70.68
2019-05-11T22:49:21.887Z,70.61
2019-05-11T22:51:54.135Z,71.07
2019-05-11T22:54:24.344Z,71.28
2019-05-11T22:56:54.456Z,71.15
2019-05-11T22:59:24.618Z,71.66
2019-05-11T23:01:54.752Z,71.47
2019-05-11T23:04:24.831Z,71.34
2019-05-11T23:06:54.942Z,71.40
2019-05-11T23:09:25.056Z,71.58
2019-05-11T23:11:55.232Z,71.74
2019-05-11T23:14:25.433Z,71.75
2019-05-11T23:16:55.558Z,71.90
2019-05-11T23:19:27.731Z,71.96
2019-05-11T23:21:58.715Z,71.98
2019-05-11T23:24:29.091Z,72.23
2019-05-11T23:26:59.415Z,72.06
2019-05-11T23:29:29.583Z,72.18
2019-05-11T23:31:59.718Z,72.25
2019-05-11T23:34:29.901Z,72.40
2019-05-11T23:37:00.031Z,72.67
2019-05-11T23:39:31.202Z,72.90
2019-05-11T23:42:01.510Z,72.98
2019-05-11T23:44:31.701Z,72.70
2019-05-11T23:47:01.848Z,72.75
2019-05-11T23:49:32.112Z,73.04
2019-05-11T23:52:07.782Z,72.82
2019-05-11T23:54:38.355Z,72.84
2019-05-11T23:57:09.428Z,73.30
2019-05-11T23:59:39.738Z,73.59
